Terminal Aerodrome Forecast
Issued by NWS Brownsville, TX

Home | Current Version | Previous Version | Text Only | Print | Product List | Glossary On
Versions: 1 2 3 4 5 6 7 8 9 10 11 12 13
982
FTUS44 KBRO 220520
TAFHRL
TAF
KHRL 220520Z 2206/2306 14008KT P6SM FEW025
     FM220900 17005KT P6SM FEW020
      TEMPO 2210/2214 1SM MIFG FEW010
     FM221400 22003KT 6SM HZ SCT030
     FM221800 35006KT P6SM SCT250
     FM222100 03009KT P6SM BKN100=

USA.gov is the U.S. government's official web portal to all federal, state and local government web resources and services.